Time;durP1;ratioP1;P1;durP2;ratioP2;P2;SDS_P1;SDS_P2;PMS_P1;PMS_P2;Temp;Humidity;BMP_temperature;BMP_pressure;BME280_temperature;BME280_humidity;BME280_pressure;Samples;Min_cycle;Max_cycle;Signal;HPM_P1;HPM_P2
2021/05/14 00:01:19;;;;;;;3.80;1.30;;;18.20;63.70;;;;;;5014583;28;20563;-69
2021/05/14 00:03:45;;;;;;;5.20;1.67;;;18.20;63.70;;;;;;5014366;28;20021;-68
2021/05/14 00:06:10;;;;;;;4.82;1.38;;;18.20;63.80;;;;;;4996933;28;20041;-70
2021/05/14 00:08:36;;;;;;;4.82;1.55;;;18.10;63.80;;;;;;5014577;28;20057;-68
2021/05/14 00:11:01;;;;;;;5.88;1.33;;;18.20;64.40;;;;;;5014314;28;20034;-68
2021/05/14 00:13:27;;;;;;;4.00;1.25;;;18.10;63.90;;;;;;5014202;28;20042;-70
2021/05/14 00:15:53;;;;;;;4.18;1.30;;;18.10;63.90;;;;;;5014363;28;20037;-69
2021/05/14 00:18:19;;;;;;;3.88;1.38;;;18.10;64.00;;;;;;5014411;28;20026;-68
2021/05/14 00:20:46;;;;;;;5.25;1.30;;;18.10;64.00;;;;;;5014333;28;20026;-68
2021/05/14 00:23:12;;;;;;;5.63;1.60;;;18.10;64.00;;;;;;5014187;28;20425;-69
2021/05/14 00:25:39;;;;;;;5.43;1.30;;;18.10;64.00;;;;;;5014040;28;20026;-69
2021/05/14 00:28:04;;;;;;;4.82;1.40;;;18.10;64.10;;;;;;5014133;28;20083;-68
2021/05/14 00:30:30;;;;;;;4.95;1.40;;;18.00;64.00;;;;;;4996353;28;20030;-70
2021/05/14 00:32:56;;;;;;;4.35;1.58;;;18.00;64.00;;;;;;5013982;28;20033;-68
2021/05/14 00:35:21;;;;;;;4.10;1.35;;;18.10;64.20;;;;;;4995363;28;20029;-69
2021/05/14 00:37:47;;;;;;;2.72;1.20;;;18.10;64.10;;;;;;4996160;28;20021;-69
2021/05/14 00:40:13;;;;;;;3.13;1.13;;;18.00;64.20;;;;;;4996419;28;20492;-68
2021/05/14 00:42:38;;;;;;;3.47;1.20;;;18.00;64.20;;;;;;5013786;28;20033;-68
2021/05/14 00:45:06;;;;;;;4.25;1.65;;;18.00;64.30;;;;;;5013650;28;20037;-69
2021/05/14 00:47:31;;;;;;;4.03;1.30;;;18.00;64.30;;;;;;4996249;28;20040;-69
2021/05/14 00:49:57;;;;;;;4.97;1.80;;;18.00;64.40;;;;;;5013764;28;20026;-70
2021/05/14 00:52:23;;;;;;;3.78;1.30;;;18.00;64.40;;;;;;5013620;28;20025;-69
2021/05/14 00:54:50;;;;;;;3.42;1.35;;;18.00;64.50;;;;;;5013404;28;20022;-68
2021/05/14 00:57:16;;;;;;;6.05;1.45;;;18.00;64.50;;;;;;5013585;28;20489;-68
2021/05/14 00:59:43;;;;;;;4.28;1.35;;;18.00;64.60;;;;;;5013665;28;20018;-69
2021/05/14 01:02:09;;;;;;;5.88;1.40;;;17.90;64.60;;;;;;5013636;28;20481;-68
2021/05/14 01:04:34;;;;;;;4.05;1.23;;;18.00;64.70;;;;;;5013207;28;20033;-69
2021/05/14 01:07:01;;;;;;;3.92;1.60;;;18.00;64.70;;;;;;5013512;28;20064;-69
2021/05/14 01:09:27;;;;;;;3.40;1.23;;;18.00;64.70;;;;;;5013305;28;20084;-70
2021/05/14 01:11:52;;;;;;;3.00;1.38;;;17.90;64.70;;;;;;4995507;28;20037;-69
2021/05/14 01:14:18;;;;;;;4.15;1.30;;;18.00;64.70;;;;;;5013036;28;20053;-69
2021/05/14 01:16:44;;;;;;;4.28;1.20;;;17.90;64.70;;;;;;5013335;28;20106;-69
2021/05/14 01:19:09;;;;;;;5.63;1.70;;;17.90;64.80;;;;;;5013218;28;20026;-69
2021/05/14 01:21:35;;;;;;;4.65;1.33;;;17.90;64.80;;;;;;5013147;28;20045;-69
2021/05/14 01:24:02;;;;;;;3.97;1.38;;;17.90;64.90;;;;;;5012781;28;20029;-70
2021/05/14 01:26:28;;;;;;;4.15;1.20;;;17.90;64.90;;;;;;4995425;28;20489;-70
2021/05/14 01:28:54;;;;;;;4.53;1.33;;;17.90;64.90;;;;;;4995447;28;20033;-69
2021/05/14 01:31:21;;;;;;;4.20;1.23;;;17.90;65.00;;;;;;5012884;28;20048;-70
2021/05/14 01:33:46;;;;;;;4.28;1.20;;;17.90;65.00;;;;;;5012716;28;20022;-70
2021/05/14 01:36:12;;;;;;;4.05;1.50;;;17.90;65.00;;;;;;5012420;28;20509;-69
2021/05/14 01:38:38;;;;;;;3.13;1.25;;;17.80;65.00;;;;;;5012908;28;20100;-69
2021/05/14 01:41:04;;;;;;;3.78;1.30;;;17.80;65.00;;;;;;5012728;28;20113;-69
2021/05/14 01:43:30;;;;;;;4.32;1.40;;;17.80;65.10;;;;;;4994891;28;20092;-69
2021/05/14 01:45:56;;;;;;;2.60;1.20;;;17.80;65.20;;;;;;5012747;28;20465;-70
2021/05/14 01:48:22;;;;;;;4.45;1.20;;;17.80;65.20;;;;;;4995093;28;20053;-69
2021/05/14 01:50:48;;;;;;;3.50;1.30;;;17.80;65.20;;;;;;4994981;28;20041;-70
2021/05/14 01:53:13;;;;;;;2.83;1.25;;;17.80;65.20;;;;;;4994870;28;20022;-69
2021/05/14 01:55:39;;;;;;;4.88;1.52;;;17.80;65.20;;;;;;5012325;28;20018;-69
2021/05/14 01:58:06;;;;;;;4.88;1.50;;;17.80;65.30;;;;;;4994883;28;20438;-70
2021/05/14 02:00:32;;;;;;;3.90;1.52;;;17.80;65.30;;;;;;5012576;28;20025;-69
2021/05/14 02:02:58;;;;;;;4.07;1.52;;;17.80;65.40;;;;;;4994827;28;20026;-69
2021/05/14 02:05:24;;;;;;;5.55;1.40;;;17.80;65.40;;;;;;4994491;28;20033;-69
2021/05/14 02:07:50;;;;;;;4.65;1.33;;;17.80;65.40;;;;;;5012435;28;20389;-69
2021/05/14 02:10:16;;;;;;;3.75;1.42;;;17.70;65.40;;;;;;5012300;28;20029;-69
2021/05/14 02:12:41;;;;;;;3.08;1.35;;;17.70;65.50;;;;;;4994431;28;20030;-69
2021/05/14 02:15:08;;;;;;;5.22;1.50;;;17.70;65.50;;;;;;5011936;28;20030;-70
2021/05/14 02:17:34;;;;;;;3.75;1.30;;;17.70;65.50;;;;;;5012186;28;20030;-70
2021/05/14 02:20:00;;;;;;;2.88;1.38;;;17.70;65.60;;;;;;5012113;28;20096;-69
2021/05/14 02:22:26;;;;;;;5.47;1.50;;;17.70;65.60;;;;;;4994406;28;20517;-70
2021/05/14 02:24:52;;;;;;;4.75;1.60;;;17.70;65.60;;;;;;5011752;28;20041;-70
2021/05/14 02:27:19;;;;;;;2.97;1.17;;;17.70;65.70;;;;;;5012066;28;20108;-69
2021/05/14 02:29:46;;;;;;;4.22;1.50;;;17.70;65.60;;;;;;4993382;28;20489;-70
2021/05/14 02:32:13;;;;;;;4.75;1.73;;;17.70;65.70;;;;;;5011798;28;20118;-68
2021/05/14 02:34:39;;;;;;;3.78;1.30;;;17.70;65.70;;;;;;5011785;28;20022;-70
2021/05/14 02:37:05;;;;;;;3.60;1.40;;;17.60;65.70;;;;;;4994019;28;20028;-71
2021/05/14 02:39:30;;;;;;;4.15;1.50;;;17.60;65.70;;;;;;5012039;28;20040;-70
2021/05/14 02:41:56;;;;;;;4.68;1.50;;;17.60;65.80;;;;;;4994295;28;20132;-69
2021/05/14 02:44:22;;;;;;;4.22;1.33;;;17.70;65.90;;;;;;4993989;28;20456;-70
2021/05/14 02:46:47;;;;;;;3.88;1.67;;;17.60;65.80;;;;;;5011808;28;20091;-69
2021/05/14 02:49:13;;;;;;;4.93;1.60;;;17.60;65.90;;;;;;4994454;28;20109;-71
2021/05/14 02:51:39;;;;;;;4.00;1.70;;;17.60;65.90;;;;;;5011657;28;20065;-69
2021/05/14 02:54:05;;;;;;;4.95;2.05;;;17.60;66.00;;;;;;5011474;28;20385;-69
2021/05/14 02:56:32;;;;;;;3.17;1.50;;;17.60;66.00;;;;;;5012119;28;20101;-69
2021/05/14 02:58:58;;;;;;;4.45;1.60;;;17.60;66.00;;;;;;5000336;28;20018;-69
2021/05/14 03:01:24;;;;;;;5.90;1.80;;;17.60;66.00;;;;;;5000550;28;20034;-70
2021/05/14 03:03:49;;;;;;;4.55;1.73;;;17.60;66.10;;;;;;5000375;28;20026;-70
2021/05/14 03:06:15;;;;;;;4.80;1.70;;;17.60;66.10;;;;;;5000550;28;20034;-70
2021/05/14 03:08:41;;;;;;;4.03;1.73;;;17.60;66.10;;;;;;5018143;28;20485;-70
2021/05/14 03:11:07;;;;;;;4.80;1.88;;;17.60;66.20;;;;;;5000234;28;20037;-71
2021/05/14 03:13:33;;;;;;;5.30;1.80;;;17.60;66.20;;;;;;5017848;28;20105;-69
2021/05/14 03:15:59;;;;;;;7.47;1.83;;;17.50;66.20;;;;;;5018118;28;20105;-69
2021/05/14 03:18:24;;;;;;;5.18;1.80;;;17.50;66.30;;;;;;5000541;28;20026;-69
2021/05/14 03:20:50;;;;;;;5.05;1.80;;;17.50;66.30;;;;;;5000424;28;20026;-70
2021/05/14 03:23:16;;;;;;;3.90;1.67;;;17.50;66.30;;;;;;5017954;28;20033;-69
2021/05/14 03:25:42;;;;;;;4.78;2.05;;;17.50;66.90;;;;;;5017773;28;20028;-69
2021/05/14 03:28:07;;;;;;;4.35;1.85;;;17.50;66.40;;;;;;5000335;28;20026;-69
2021/05/14 03:30:33;;;;;;;4.47;1.90;;;17.50;66.40;;;;;;5017825;28;20018;-70
2021/05/14 03:32:59;;;;;;;4.05;1.88;;;17.50;66.50;;;;;;5018080;28;20396;-69
2021/05/14 03:35:24;;;;;;;4.05;2.08;;;17.50;66.50;;;;;;5017650;28;20033;-70
2021/05/14 03:37:50;;;;;;;4.00;1.80;;;17.50;66.50;;;;;;4999747;28;20026;-70
2021/05/14 03:40:37;;;;;;;5.63;1.98;;;17.50;66.50;;;;;;5017810;28;20022;-70
2021/05/14 03:43:03;;;;;;;4.97;1.90;;;17.50;66.50;;;;;;5017323;28;20072;-69
2021/05/14 03:45:29;;;;;;;4.97;1.90;;;17.50;66.60;;;;;;4999889;28;20050;-70
2021/05/14 03:47:56;;;;;;;4.50;2.05;;;17.50;66.50;;;;;;5000210;28;20433;-69
2021/05/14 03:50:23;;;;;;;4.70;2.00;;;17.50;66.50;;;;;;5000280;28;20109;-70
2021/05/14 03:52:49;;;;;;;5.45;2.20;;;17.50;66.50;;;;;;5017588;28;20029;-70
2021/05/14 03:55:14;;;;;;;5.45;2.22;;;17.50;66.40;;;;;;5024166;28;20042;-68
2021/05/14 03:57:40;;;;;;;5.60;2.28;;;17.50;66.70;;;;;;5031280;28;20025;-70
2021/05/14 04:00:06;;;;;;;4.57;2.10;;;17.50;66.70;;;;;;5007518;28;20205;-69
2021/05/14 04:02:32;;;;;;;5.78;2.38;;;17.50;66.70;;;;;;5011452;28;20686;-69
2021/05/14 04:04:58;;;;;;;5.43;2.00;;;17.50;66.70;;;;;;5018345;28;20030;-69
2021/05/14 04:07:24;;;;;;;5.50;2.15;;;17.50;66.70;;;;;;5031382;28;20558;-70
2021/05/14 04:10:04;;;;;;;5.85;2.08;;;17.50;66.70;;;;;;5027242;28;20029;-68
2021/05/14 04:15:11;;;;;;;6.32;2.10;;;17.50;66.80;;;;;;5027851;28;20025;-70
2021/05/14 04:17:38;;;;;;;6.30;2.30;;;17.50;66.90;;;;;;5016211;28;20029;-72
2021/05/14 04:20:07;;;;;;;4.85;2.00;;;17.50;66.80;;;;;;5008248;28;20021;-69
2021/05/14 04:22:32;;;;;;;5.03;2.17;;;17.50;66.80;;;;;;5007919;28;20030;-69
2021/05/14 04:24:58;;;;;;;6.53;2.47;;;17.50;66.80;;;;;;5006802;28;20036;-68
2021/05/14 04:27:23;;;;;;;5.47;2.20;;;17.50;67.10;;;;;;5008245;28;20117;-68
2021/05/14 04:29:49;;;;;;;8.40;2.60;;;17.50;66.90;;;;;;5013082;28;20412;-68
2021/05/14 04:32:15;;;;;;;7.07;2.80;;;17.50;67.00;;;;;;5024561;28;20570;-69
2021/05/14 04:34:41;;;;;;;6.97;2.40;;;17.60;67.70;;;;;;5009137;28;20026;-68
2021/05/14 04:37:07;;;;;;;7.57;2.90;;;17.50;67.70;;;;;;5009112;28;20037;-68
2021/05/14 04:39:33;;;;;;;7.85;3.38;;;17.50;67.50;;;;;;5027528;28;20108;-69
2021/05/14 04:41:59;;;;;;;7.90;3.58;;;17.50;67.60;;;;;;5027387;28;20100;-68
2021/05/14 04:44:24;;;;;;;7.65;3.00;;;17.50;67.50;;;;;;5027054;28;20951;-68
2021/05/14 04:46:51;;;;;;;6.82;3.17;;;17.50;67.50;;;;;;5027565;28;20029;-69
2021/05/14 04:49:17;;;;;;;7.10;3.55;;;17.50;67.40;;;;;;5009367;28;20148;-67
2021/05/14 04:51:42;;;;;;;8.68;4.00;;;17.50;67.20;;;;;;5027329;28;20105;-68
2021/05/14 04:54:08;;;;;;;6.30;3.60;;;17.50;67.20;;;;;;5025392;28;20079;-68
2021/05/14 04:56:34;;;;;;;9.13;3.85;;;17.50;67.10;;;;;;5027218;28;20030;-68
2021/05/14 04:58:59;;;;;;;14.02;3.90;;;17.50;66.80;;;;;;5027124;28;20041;-68
2021/05/14 05:01:25;;;;;;;8.70;4.40;;;17.50;67.00;;;;;;5027094;28;20036;-69
2021/05/14 05:03:53;;;;;;;10.57;4.50;;;17.50;67.20;;;;;;5026521;28;20033;-69
2021/05/14 05:06:18;;;;;;;8.88;4.68;;;17.60;68.20;;;;;;5003359;28;20040;-68
2021/05/14 05:08:44;;;;;;;10.02;4.68;;;17.60;68.70;;;;;;5014363;28;20033;-71
2021/05/14 05:11:11;;;;;;;10.30;3.92;;;17.60;68.90;;;;;;5015267;28;20054;-68
2021/05/14 05:13:39;;;;;;;10.52;3.95;;;17.60;68.30;;;;;;4992878;28;20046;-71
2021/05/14 05:16:05;;;;;;;9.77;3.95;;;17.60;67.90;;;;;;4995757;28;20096;-71
2021/05/14 05:18:31;;;;;;;8.35;3.65;;;17.60;67.80;;;;;;5013305;28;20474;-68
2021/05/14 05:20:56;;;;;;;6.95;3.45;;;17.60;67.80;;;;;;4995156;28;20025;-69
2021/05/14 05:23:22;;;;;;;6.72;3.70;;;17.60;67.90;;;;;;5013050;28;20022;-71
2021/05/14 05:25:48;;;;;;;15.85;4.28;;;17.60;67.80;;;;;;5013025;28;20025;-70
2021/05/14 05:28:19;;;;;;;9.98;3.72;;;17.60;68.30;;;;;;4995559;28;20440;-70
2021/05/14 05:30:44;;;;;;;9.63;4.28;;;17.70;68.20;;;;;;4995434;28;20022;-71
2021/05/14 05:33:10;;;;;;;8.88;3.85;;;17.60;67.40;;;;;;5012389;28;20040;-71
2021/05/14 05:35:35;;;;;;;9.73;3.90;;;17.70;67.60;;;;;;5011356;28;20121;-71
2021/05/14 05:38:01;;;;;;;11.30;3.92;;;17.70;67.60;;;;;;5011624;28;20075;-71
2021/05/14 05:40:26;;;;;;;10.50;3.45;;;17.70;67.60;;;;;;5012893;28;20050;-71
2021/05/14 05:42:52;;;;;;;11.27;3.70;;;17.70;67.50;;;;;;5012741;28;20033;-70
2021/05/14 05:45:17;;;;;;;8.43;3.35;;;17.70;67.40;;;;;;5012529;28;20033;-71
2021/05/14 05:47:43;;;;;;;10.07;3.90;;;17.70;67.30;;;;;;5012781;28;20497;-71
2021/05/14 05:50:09;;;;;;;11.05;3.60;;;17.70;67.20;;;;;;5012773;28;20045;-71
2021/05/14 05:52:34;;;;;;;11.88;3.53;;;17.70;67.30;;;;;;5012515;28;20025;-71
2021/05/14 05:55:00;;;;;;;10.90;3.72;;;17.70;67.00;;;;;;5012319;28;20029;-71
2021/05/14 05:57:25;;;;;;;10.93;3.88;;;17.70;66.80;;;;;;4994919;28;20029;-71
2021/05/14 05:59:51;;;;;;;9.88;4.03;;;17.70;66.80;;;;;;5012556;28;20022;-71
2021/05/14 06:02:17;;;;;;;9.60;4.00;;;17.70;66.50;;;;;;5012447;28;20382;-72
2021/05/14 06:04:42;;;;;;;11.13;3.88;;;17.80;66.30;;;;;;5012162;28;20056;-71
2021/05/14 06:07:08;;;;;;;6.40;3.65;;;17.80;66.20;;;;;;5012434;28;20096;-71
2021/05/14 06:09:34;;;;;;;7.95;4.22;;;17.80;65.90;;;;;;5012357;28;20030;-71
2021/05/14 06:12:00;;;;;;;10.10;4.25;;;17.90;65.70;;;;;;5012030;28;20033;-71
2021/05/14 06:14:26;;;;;;;10.55;4.53;;;17.90;65.40;;;;;;5012066;28;20466;-71
2021/05/14 06:16:52;;;;;;;7.32;4.22;;;18.00;65.40;;;;;;5012319;28;20029;-71
2021/05/14 06:19:26;;;;;;;10.55;4.28;;;18.10;65.10;;;;;;5012257;28;20038;-72
2021/05/14 06:21:52;;;;;;;9.70;4.90;;;18.10;64.90;;;;;;5012237;28;20433;-71
2021/05/14 06:24:18;;;;;;;11.00;4.78;;;18.20;64.60;;;;;;5011884;28;20057;-71
2021/05/14 06:26:44;;;;;;;10.57;4.30;;;18.30;64.50;;;;;;4994700;28;20029;-71
2021/05/14 06:29:10;;;;;;;10.93;4.40;;;18.30;64.00;;;;;;4994454;28;20441;-71
2021/05/14 06:31:36;;;;;;;8.95;4.50;;;18.40;63.70;;;;;;5010173;28;20120;-72
2021/05/14 06:34:02;;;;;;;7.55;4.43;;;18.40;63.60;;;;;;4994005;28;20076;-71
2021/05/14 06:36:27;;;;;;;9.20;4.65;;;18.40;63.40;;;;;;4994361;28;20022;-71
2021/05/14 06:38:53;;;;;;;7.18;4.25;;;18.40;63.20;;;;;;5011950;28;20447;-71
2021/05/14 06:41:19;;;;;;;8.77;4.45;;;18.50;63.20;;;;;;4994261;28;20634;-72
2021/05/14 06:43:44;;;;;;;7.50;4.40;;;18.60;62.90;;;;;;5011624;28;20026;-71
2021/05/14 06:46:10;;;;;;;9.18;4.85;;;18.60;62.60;;;;;;4994238;28;20028;-72
2021/05/14 06:48:36;;;;;;;7.22;4.28;;;18.70;62.30;;;;;;4994250;28;20057;-72
2021/05/14 06:51:01;;;;;;;8.10;4.43;;;18.70;62.10;;;;;;5011682;28;20033;-73
2021/05/14 06:53:27;;;;;;;7.93;4.15;;;18.80;62.20;;;;;;4993923;28;20121;-72
2021/05/14 06:55:53;;;;;;;8.68;4.80;;;18.70;62.10;;;;;;4994133;28;20061;-71
2021/05/14 06:58:19;;;;;;;8.45;4.28;;;18.80;62.30;;;;;;5011723;28;20385;-71
2021/05/14 07:00:44;;;;;;;8.88;4.80;;;18.80;62.00;;;;;;4994117;28;20025;-72
2021/05/14 07:03:10;;;;;;;7.47;4.25;;;18.90;61.80;;;;;;5011574;28;20032;-72
2021/05/14 07:05:36;;;;;;;7.70;4.10;;;19.00;61.40;;;;;;5011439;28;20080;-71
2021/05/14 07:08:01;;;;;;;6.97;4.15;;;19.00;61.50;;;;;;4994016;28;20029;-71
2021/05/14 07:10:28;;;;;;;8.35;4.20;;;19.00;61.40;;;;;;5011586;28;20460;-71
2021/05/14 07:12:54;;;;;;;6.90;4.22;;;19.00;61.00;;;;;;5011306;28;20037;-71
2021/05/14 07:15:20;;;;;;;6.80;4.13;;;19.10;61.10;;;;;;4994003;28;20389;-71
2021/05/14 07:17:46;;;;;;;7.20;4.53;;;19.00;61.10;;;;;;5011557;28;20025;-71
2021/05/14 07:20:12;;;;;;;7.55;4.32;;;18.90;61.00;;;;;;5011561;28;20026;-71
2021/05/14 07:22:39;;;;;;;6.63;3.80;;;19.00;61.30;;;;;;4993724;28;20030;-72
2021/05/14 07:25:05;;;;;;;8.02;4.13;;;19.00;61.30;;;;;;5011227;28;20026;-71
2021/05/14 07:27:31;;;;;;;7.05;4.05;;;19.00;61.40;;;;;;5011502;28;20041;-71
2021/05/14 07:29:56;;;;;;;8.07;4.20;;;18.90;61.00;;;;;;4993760;28;20026;-71
2021/05/14 07:32:22;;;;;;;7.82;4.30;;;18.90;61.20;;;;;;5011255;28;20034;-71
2021/05/14 07:34:47;;;;;;;6.65;3.80;;;19.00;61.10;;;;;;4993531;28;20029;-71
2021/05/14 07:37:13;;;;;;;7.70;4.13;;;18.90;60.90;;;;;;5011420;28;20018;-71
2021/05/14 07:39:39;;;;;;;7.60;4.22;;;18.90;61.20;;;;;;5011312;28;20022;-70
2021/05/14 07:42:05;;;;;;;6.00;3.75;;;18.90;61.10;;;;;;4993615;28;20061;-71
2021/05/14 07:44:31;;;;;;;7.55;3.90;;;18.90;61.10;;;;;;5013774;28;20579;-71
2021/05/14 07:46:57;;;;;;;7.03;3.80;;;18.90;61.20;;;;;;5015016;28;20026;-71
2021/05/14 07:49:22;;;;;;;7.72;4.13;;;18.90;61.30;;;;;;4997381;28;20026;-71
2021/05/14 07:51:48;;;;;;;6.82;3.92;;;18.90;61.10;;;;;;5014781;28;20037;-70
2021/05/14 07:54:13;;;;;;;7.22;4.20;;;18.90;61.30;;;;;;4997018;28;20397;-72
2021/05/14 07:56:39;;;;;;;7.60;3.70;;;18.80;61.20;;;;;;5014820;28;20022;-71
2021/05/14 07:59:08;;;;;;;7.85;3.78;;;18.80;61.30;;;;;;5013726;28;20026;-71
2021/05/14 08:01:34;;;;;;;8.15;3.80;;;18.80;61.10;;;;;;4997101;28;20456;-71
2021/05/14 08:03:59;;;;;;;7.05;3.83;;;18.80;61.30;;;;;;5014357;28;20038;-71
2021/05/14 08:06:25;;;;;;;6.18;3.72;;;18.80;61.20;;;;;;4997038;28;20044;-71
2021/05/14 08:08:51;;;;;;;6.35;3.75;;;18.80;61.30;;;;;;5014611;28;20037;-72
2021/05/14 08:11:17;;;;;;;6.22;3.67;;;18.80;61.20;;;;;;5014342;28;20416;-71
2021/05/14 08:13:42;;;;;;;6.82;4.18;;;18.80;61.30;;;;;;4996651;28;20032;-72
2021/05/14 08:16:08;;;;;;;6.00;3.50;;;18.80;61.50;;;;;;5014590;28;20053;-71
2021/05/14 08:18:34;;;;;;;6.50;3.90;;;18.70;61.40;;;;;;4996822;28;20026;-71
2021/05/14 08:20:59;;;;;;;6.15;3.67;;;18.80;61.30;;;;;;5012977;28;20092;-71
2021/05/14 08:23:25;;;;;;;8.85;4.07;;;18.70;61.20;;;;;;4996687;28;20026;-71
2021/05/14 08:25:51;;;;;;;6.43;3.70;;;18.80;61.40;;;;;;5014254;28;20540;-71
2021/05/14 08:28:17;;;;;;;7.90;4.07;;;18.80;61.30;;;;;;5013029;28;20181;-71
2021/05/14 08:30:44;;;;;;;6.07;3.72;;;18.70;61.40;;;;;;5014197;28;20397;-72
2021/05/14 08:33:10;;;;;;;5.85;3.55;;;18.70;61.40;;;;;;5014081;28;20025;-71
2021/05/14 08:35:37;;;;;;;6.07;3.80;;;18.70;61.40;;;;;;4996234;28;20022;-71
2021/05/14 08:38:04;;;;;;;5.68;3.72;;;18.70;61.50;;;;;;5014067;28;20104;-72
2021/05/14 08:40:29;;;;;;;5.57;3.55;;;18.70;61.40;;;;;;5014129;28;20018;-71
2021/05/14 08:42:55;;;;;;;5.97;3.80;;;18.70;61.40;;;;;;5013937;28;20088;-71
2021/05/14 08:45:21;;;;;;;7.07;3.60;;;18.70;61.30;;;;;;5013680;28;20026;-72
2021/05/14 08:47:49;;;;;;;7.03;3.65;;;18.70;61.40;;;;;;4996225;28;20033;-71
2021/05/14 08:50:15;;;;;;;6.13;3.58;;;18.70;61.60;;;;;;5012536;28;20094;-71
2021/05/14 08:52:42;;;;;;;6.43;3.97;;;18.70;61.50;;;;;;5013667;28;20029;-71
2021/05/14 08:55:12;;;;;;;5.78;3.33;;;18.70;61.50;;;;;;5012835;28;20370;-71
2021/05/14 08:57:41;;;;;;;5.53;3.53;;;18.70;61.50;;;;;;4996166;28;20508;-71
2021/05/14 09:00:09;;;;;;;5.70;3.50;;;18.70;61.50;;;;;;4996140;28;20521;-71
2021/05/14 09:02:36;;;;;;;6.60;3.92;;;18.70;61.40;;;;;;5013467;28;20065;-71
2021/05/14 09:05:24;;;;;;;5.88;3.78;;;18.60;61.40;;;;;;5013280;28;20029;-71
2021/05/14 09:07:52;;;;;;;5.78;3.90;;;18.70;61.50;;;;;;4996123;28;20405;-73
2021/05/14 09:10:18;;;;;;;5.60;3.47;;;18.60;61.50;;;;;;5012290;28;20073;-71
2021/05/14 09:12:44;;;;;;;4.88;3.05;;;18.60;61.60;;;;;;4995532;28;20500;-71
2021/05/14 09:15:22;;;;;;;7.32;3.83;;;18.60;61.50;;;;;;5013042;28;20026;-71
2021/05/14 09:18:06;;;;;;;6.75;3.80;;;18.60;61.60;;;;;;5013289;28;20084;-71
2021/05/14 09:20:39;;;;;;;5.95;3.63;;;18.60;61.50;;;;;;5012027;28;20022;-72
2021/05/14 09:23:17;;;;;;;6.07;3.42;;;18.60;61.60;;;;;;5013157;28;20025;-71
2021/05/14 09:26:07;;;;;;;5.28;3.47;;;18.60;61.60;;;;;;5012928;28;20034;-73
2021/05/14 09:28:50;;;;;;;6.78;3.47;;;18.60;61.60;;;;;;5013238;28;20022;-73
2021/05/14 09:31:23;;;;;;;6.55;3.63;;;18.60;61.60;;;;;;4995344;28;20095;-71
2021/05/14 09:33:59;;;;;;;6.25;3.17;;;18.60;61.70;;;;;;5012228;28;20092;-72
2021/05/14 09:36:34;;;;;;;5.13;3.13;;;18.50;61.50;;;;;;5012985;28;20018;-71
2021/05/14 09:39:09;;;;;;;5.75;3.30;;;18.60;61.60;;;;;;5012975;28;20026;-72
2021/05/14 09:41:42;;;;;;;5.32;3.20;;;18.50;61.60;;;;;;5012782;28;20030;-73
2021/05/14 09:44:11;;;;;;;5.38;3.20;;;18.50;61.60;;;;;;5012539;28;20354;-71
2021/05/14 09:46:42;;;;;;;4.50;2.90;;;18.50;61.60;;;;;;5012760;28;20215;-72
2021/05/14 09:49:09;;;;;;;5.57;3.35;;;18.50;61.70;;;;;;4995068;28;20041;-73
2021/05/14 09:51:45;;;;;;;5.30;3.35;;;18.50;61.70;;;;;;5012614;28;20025;-72
2021/05/14 09:54:29;;;;;;;5.72;3.30;;;18.50;61.70;;;;;;5012561;28;20023;-72
2021/05/14 09:57:03;;;;;;;4.80;3.08;;;18.50;61.90;;;;;;5012707;28;20029;-71
2021/05/14 09:59:31;;;;;;;5.13;3.28;;;18.50;61.80;;;;;;5012545;28;20018;-71
2021/05/14 10:01:58;;;;;;;5.57;3.22;;;18.50;61.90;;;;;;4994905;28;20049;-71
2021/05/14 10:04:26;;;;;;;5.03;3.05;;;18.50;61.90;;;;;;5012304;28;20568;-70
2021/05/14 10:06:53;;;;;;;5.00;3.00;;;18.50;61.90;;;;;;5011539;28;20061;-71
2021/05/14 10:09:20;;;;;;;5.32;2.90;;;18.50;61.80;;;;;;5012410;28;20567;-71
2021/05/14 10:11:46;;;;;;;5.00;3.00;;;18.40;61.80;;;;;;5012184;28;20493;-71
2021/05/14 10:14:12;;;;;;;5.20;3.20;;;18.50;61.90;;;;;;5010794;28;20175;-71
2021/05/14 10:16:38;;;;;;;4.72;2.83;;;18.50;62.50;;;;;;5011087;28;20540;-72
2021/05/14 10:19:04;;;;;;;5.10;3.15;;;18.50;61.90;;;;;;4994642;28;20029;-72
2021/05/14 10:21:30;;;;;;;5.03;3.00;;;18.50;62.40;;;;;;5012213;28;20370;-71
2021/05/14 10:23:56;;;;;;;5.00;3.08;;;18.50;62.00;;;;;;5011919;28;20026;-71
2021/05/14 10:26:21;;;;;;;4.97;3.28;;;18.50;62.00;;;;;;5010858;28;20026;-71
2021/05/14 10:28:49;;;;;;;5.25;3.17;;;18.50;62.00;;;;;;5012146;28;20065;-71
2021/05/14 10:31:19;;;;;;;5.40;3.42;;;18.50;62.20;;;;;;4994237;28;20030;-71
2021/05/14 10:33:58;;;;;;;6.40;3.50;;;18.40;61.90;;;;;;5010457;28;20025;-70
2021/05/14 10:36:32;;;;;;;5.68;3.28;;;18.50;62.00;;;;;;4994376;28;20032;-72
2021/05/14 10:39:14;;;;;;;5.45;3.10;;;18.50;62.00;;;;;;5012025;28;20030;-70
2021/05/14 10:42:05;;;;;;;4.97;2.95;;;18.50;61.90;;;;;;5012044;28;20049;-70
2021/05/14 10:44:43;;;;;;;4.53;2.67;;;18.50;61.90;;;;;;5011604;28;20034;-70
2021/05/14 10:47:21;;;;;;;5.32;3.10;;;18.40;61.90;;;;;;4994187;28;20034;-71
2021/05/14 10:49:49;;;;;;;4.63;2.67;;;18.40;62.10;;;;;;5010549;28;20030;-71
2021/05/14 10:52:14;;;;;;;4.70;2.88;;;18.40;62.10;;;;;;5010424;28;20072;-72
2021/05/14 10:54:43;;;;;;;4.90;3.05;;;18.40;62.20;;;;;;4993948;28;20505;-70
2021/05/14 10:57:12;;;;;;;4.97;2.70;;;18.40;62.20;;;;;;5011764;28;20037;-71
2021/05/14 10:59:42;;;;;;;4.47;2.67;;;18.40;62.10;;;;;;5011714;28;20489;-72
2021/05/14 11:02:30;;;;;;;4.80;2.88;;;18.40;62.10;;;;;;5011617;28;20030;-71
2021/05/14 11:04:57;;;;;;;5.65;2.90;;;18.40;62.30;;;;;;5011458;28;20033;-70
2021/05/14 11:07:42;;;;;;;5.20;3.17;;;18.40;62.10;;;;;;5011662;28;20535;-73
2021/05/14 11:10:13;;;;;;;4.63;2.85;;;18.40;62.20;;;;;;5011649;28;20026;-71
2021/05/14 11:12:44;;;;;;;5.43;3.28;;;18.40;62.10;;;;;;5010118;28;20378;-72
2021/05/14 11:15:21;;;;;;;5.28;3.28;;;18.40;62.00;;;;;;5012479;28;20405;-71
2021/05/14 11:18:14;;;;;;;4.60;2.85;;;18.40;62.10;;;;;;5011612;28;20113;-71
2021/05/14 11:20:49;;;;;;;4.90;3.20;;;18.40;62.20;;;;;;5015548;28;20032;-73
2021/05/14 11:23:32;;;;;;;5.20;2.78;;;18.40;62.00;;;;;;5015477;28;20432;-71
2021/05/14 11:25:57;;;;;;;4.53;2.60;;;18.60;61.90;;;;;;5015443;28;20053;-71
2021/05/14 11:28:44;;;;;;;4.43;2.70;;;18.60;61.60;;;;;;4997754;28;20135;-71
2021/05/14 11:31:17;;;;;;;4.80;2.80;;;18.60;61.50;;;;;;4997619;28;20030;-70
2021/05/14 11:33:48;;;;;;;4.85;2.70;;;18.60;61.30;;;;;;4997282;28;20113;-71
2021/05/14 11:36:14;;;;;;;4.47;2.75;;;18.70;61.90;;;;;;5015236;28;20018;-71
2021/05/14 11:38:54;;;;;;;4.20;2.60;;;18.70;61.10;;;;;;5015179;28;20026;-72
2021/05/14 11:41:32;;;;;;;4.27;2.60;;;18.70;61.10;;;;;;4997555;28;20105;-71
2021/05/14 11:44:03;;;;;;;4.53;2.72;;;18.70;61.00;;;;;;5014779;28;20284;-72
2021/05/14 11:46:32;;;;;;;4.13;2.40;;;18.70;61.00;;;;;;4997448;28;20029;-72
2021/05/14 11:49:08;;;;;;;3.78;2.38;;;18.80;60.70;;;;;;5014925;28;20107;-71
2021/05/14 11:51:34;;;;;;;4.25;2.55;;;18.90;60.60;;;;;;4997236;28;20032;-72
2021/05/14 11:54:14;;;;;;;4.45;2.60;;;18.90;60.30;;;;;;4997058;28;20025;-71
2021/05/14 11:56:41;;;;;;;4.13;2.35;;;19.10;60.40;;;;;;5014926;28;20022;-71
2021/05/14 11:59:19;;;;;;;3.78;2.25;;;19.10;59.80;;;;;;5014830;28;20481;-71
2021/05/14 12:01:44;;;;;;;4.18;2.67;;;19.20;59.90;;;;;;4997132;28;20030;-71
2021/05/14 12:04:10;;;;;;;4.30;2.42;;;19.20;59.60;;;;;;5014481;28;20037;-72
2021/05/14 12:06:46;;;;;;;3.72;2.40;;;19.30;59.40;;;;;;5014918;28;20449;-71
2021/05/14 12:09:12;;;;;;;3.67;2.38;;;19.20;59.60;;;;;;5014702;28;20030;-71
2021/05/14 12:11:39;;;;;;;3.65;2.20;;;19.20;59.50;;;;;;4996705;28;20025;-71
2021/05/14 12:14:04;;;;;;;4.05;2.40;;;19.20;60.20;;;;;;4996530;28;20030;-71
2021/05/14 12:16:35;;;;;;;3.63;2.45;;;19.20;59.70;;;;;;5014542;28;20025;-71
2021/05/14 12:19:04;;;;;;;4.10;2.42;;;19.10;59.50;;;;;;5014480;28;20101;-71
2021/05/14 12:21:32;;;;;;;4.28;2.47;;;19.20;59.70;;;;;;4996744;28;20083;-71
2021/05/14 12:24:00;;;;;;;3.95;2.20;;;19.20;59.50;;;;;;4996547;28;20112;-72
2021/05/14 12:26:32;;;;;;;3.85;2.20;;;19.20;59.60;;;;;;5014287;28;20100;-72
2021/05/14 12:28:57;;;;;;;4.38;2.28;;;19.20;59.80;;;;;;5014301;28;20500;-72
2021/05/14 12:31:26;;;;;;;4.10;2.38;;;19.20;59.60;;;;;;4995431;28;20030;-71
2021/05/14 12:33:55;;;;;;;4.40;2.42;;;19.20;59.50;;;;;;5012544;28;20029;-71
2021/05/14 12:36:26;;;;;;;3.28;2.10;;;19.30;59.50;;;;;;5014150;28;20022;-71
2021/05/14 12:38:53;;;;;;;4.15;2.05;;;19.30;59.50;;;;;;5014089;28;20014;-71
2021/05/14 12:41:24;;;;;;;3.60;2.20;;;19.30;59.20;;;;;;4996339;28;20034;-71
2021/05/14 12:44:09;;;;;;;3.78;2.22;;;19.30;59.20;;;;;;5013726;28;20439;-72
2021/05/14 12:46:55;;;;;;;3.33;2.03;;;19.40;59.50;;;;;;4996382;28;20123;-71
2021/05/14 12:49:21;;;;;;;3.63;2.10;;;19.40;59.20;;;;;;4995794;28;20405;-71
2021/05/14 12:52:02;;;;;;;3.53;2.20;;;19.40;59.30;;;;;;4996183;28;20026;-71